createdAt,value
2023-09-10T00:01:11.627Z,51.23
2023-09-10T00:03:41.255Z,51.27
2023-09-10T00:06:09.698Z,51.48
2023-09-10T00:08:36.970Z,51.29
2023-09-10T00:11:06.302Z,51.30
2023-09-10T00:13:33.481Z,51.14
2023-09-10T00:16:00.342Z,51.24
2023-09-10T00:18:27.123Z,51.25
2023-09-10T00:24:29.846Z,51.29
2023-09-10T00:26:56.439Z,51.40
2023-09-10T00:29:23.057Z,51.41
2023-09-10T00:31:49.924Z,51.42
2023-09-10T00:34:16.594Z,51.59
2023-09-10T00:36:43.147Z,51.71
2023-09-10T00:39:10.255Z,51.74
2023-09-10T00:41:37.062Z,51.72
2023-09-10T00:44:04.167Z,52.04
2023-09-10T00:46:31.496Z,52.17
2023-09-10T00:48:59.933Z,51.92
2023-09-10T00:51:27.376Z,52.21
2023-09-10T00:53:54.369Z,52.25
2023-09-10T00:56:22.025Z,52.06
2023-09-10T00:58:49.202Z,52.19
2023-09-10T01:01:16.479Z,52.17
2023-09-10T01:03:43.794Z,52.12
2023-09-10T01:08:37.572Z,52.01
2023-09-10T01:11:25.993Z,52.35
2023-09-10T01:14:12.512Z,52.20
2023-09-10T01:17:06.425Z,51.91
2023-09-10T01:20:12.995Z,52.03
2023-09-10T01:23:20.603Z,52.31
2023-09-10T01:25:47.679Z,52.43
2023-09-10T01:28:14.296Z,52.42
2023-09-10T01:30:40.962Z,52.52
2023-09-10T01:33:10.178Z,52.71
2023-09-10T01:35:52.890Z,52.97
2023-09-10T01:38:48.505Z,53.37
2023-09-10T01:41:18.418Z,53.28
2023-09-10T01:43:46.203Z,52.95
2023-09-10T01:46:14.208Z,52.74
2023-09-10T01:48:41.697Z,53.07
2023-09-10T01:51:08.704Z,53.17
2023-09-10T01:53:35.267Z,53.31
2023-09-10T01:56:02.010Z,53.46
2023-09-10T01:58:28.659Z,53.52
2023-09-10T02:00:55.389Z,53.50
2023-09-10T02:03:22.145Z,53.49
2023-09-10T02:05:48.792Z,53.54
2023-09-10T02:08:16.191Z,53.69
2023-09-10T02:10:44.548Z,53.74
2023-09-10T02:13:11.144Z,53.73
2023-09-10T02:15:37.780Z,53.79
2023-09-10T02:18:04.751Z,53.94
2023-09-10T02:20:50.157Z,54.13
2023-09-10T02:23:22.986Z,53.99
2023-09-10T02:25:49.564Z,54.06
2023-09-10T02:28:16.226Z,54.08
2023-09-10T02:30:42.857Z,54.16
2023-09-10T02:33:10.680Z,54.22
2023-09-10T02:35:37.381Z,54.15
2023-09-10T02:38:04.188Z,54.24
2023-09-10T02:40:36.274Z,54.30
2023-09-10T02:43:02.905Z,54.49
2023-09-10T02:45:29.596Z,54.43
2023-09-10T02:47:56.208Z,54.49
2023-09-10T02:53:43.434Z,54.73
2023-09-10T02:56:10.288Z,55.03
2023-09-10T02:58:37.207Z,55.06
2023-09-10T03:01:07.309Z,55.07
2023-09-10T03:03:34.747Z,54.94
2023-09-10T03:06:01.898Z,55.00
2023-09-10T03:08:28.607Z,55.06
2023-09-10T03:10:55.301Z,55.15
2023-09-10T03:13:22.056Z,55.07
2023-09-10T03:15:49.701Z,55.16
2023-09-10T03:18:16.492Z,55.22
2023-09-10T03:20:43.227Z,55.24
2023-09-10T03:25:45.063Z,55.54
2023-09-10T03:28:11.991Z,55.77
2023-09-10T03:30:38.561Z,55.92
2023-09-10T03:33:05.452Z,56.09
2023-09-10T03:35:33.113Z,56.09
2023-09-10T03:38:37.391Z,56.17
2023-09-10T03:42:43.382Z,56.00
2023-09-10T03:45:10.430Z,56.03
2023-09-10T03:47:38.310Z,56.13
2023-09-10T03:50:06.094Z,56.08
2023-09-10T03:52:32.809Z,56.12
2023-09-10T03:55:23.586Z,56.00
2023-09-10T03:57:50.233Z,56.18
2023-09-10T04:00:16.875Z,56.25
2023-09-10T04:02:43.846Z,56.38
2023-09-10T04:05:12.869Z,56.44
2023-09-10T04:07:40.000Z,56.54
2023-09-10T04:10:08.119Z,56.58
2023-09-10T04:12:35.093Z,56.70
2023-09-10T04:15:01.685Z,56.76
2023-09-10T04:17:29.971Z,56.76
2023-09-10T04:20:57.252Z,56.65
2023-09-10T04:23:48.809Z,56.86
2023-09-10T04:26:15.691Z,57.16
2023-09-10T04:28:43.072Z,57.12
2023-09-10T04:31:14.978Z,57.01
2023-09-10T04:33:41.874Z,57.03
2023-09-10T04:36:08.494Z,56.99
2023-09-10T04:38:35.316Z,56.83
2023-09-10T04:41:02.065Z,56.72
2023-09-10T04:43:28.959Z,56.98
2023-09-10T04:45:55.725Z,57.02
2023-09-10T04:48:22.362Z,57.08
2023-09-10T04:50:48.958Z,57.10
2023-09-10T04:55:55.444Z,57.06
2023-09-10T04:58:22.320Z,57.14
2023-09-10T05:01:06.736Z,57.12
2023-09-10T05:07:02.587Z,57.26
2023-09-10T05:09:29.141Z,57.36
2023-09-10T05:11:58.628Z,57.32
2023-09-10T05:14:27.919Z,57.36
2023-09-10T05:16:54.586Z,57.29
2023-09-10T05:19:24.923Z,57.29
2023-09-10T05:21:51.594Z,57.27
2023-09-10T05:24:18.179Z,57.05
2023-09-10T05:26:44.743Z,56.92
2023-09-10T05:29:11.340Z,56.95
2023-09-10T05:31:38.417Z,56.91
2023-09-10T05:34:05.259Z,56.81
2023-09-10T05:36:31.844Z,56.61
2023-09-10T05:38:58.409Z,56.59
2023-09-10T05:41:24.978Z,56.60
2023-09-10T05:43:51.647Z,56.49
2023-09-10T05:46:18.705Z,56.28
2023-09-10T05:48:45.425Z,55.85
2023-09-10T05:51:12.016Z,55.61
2023-09-10T05:54:02.948Z,55.46
2023-09-10T05:56:45.295Z,55.40
2023-09-10T05:59:11.876Z,55.15
2023-09-10T06:01:38.531Z,54.79
2023-09-10T06:04:05.510Z,54.33
2023-09-10T06:06:32.189Z,53.94
2023-09-10T06:09:05.124Z,53.41
2023-09-10T06:11:31.787Z,53.29
2023-09-10T06:13:58.424Z,52.82
2023-09-10T06:16:25.160Z,52.40
2023-09-10T06:18:52.342Z,51.42
2023-09-10T06:21:19.233Z,50.85
2023-09-10T06:23:46.132Z,50.08
2023-09-10T06:26:14.180Z,49.79
2023-09-10T06:28:41.128Z,49.40
2023-09-10T06:31:09.259Z,49.02
2023-09-10T06:33:36.105Z,48.28
2023-09-10T06:36:03.202Z,48.41
2023-09-10T06:38:30.304Z,48.07
2023-09-10T06:40:57.175Z,47.92
2023-09-10T06:43:23.779Z,48.14
2023-09-10T06:45:52.403Z,47.92
2023-09-10T06:48:20.090Z,47.77
2023-09-10T06:50:46.966Z,48.00
2023-09-10T06:53:13.938Z,48.02
2023-09-10T06:55:40.813Z,47.64
2023-09-10T06:58:07.428Z,47.71
2023-09-10T07:00:35.079Z,47.84
2023-09-10T07:03:03.641Z,47.94
2023-09-10T07:05:30.424Z,47.79
2023-09-10T07:07:57.195Z,47.51
2023-09-10T07:10:23.811Z,48.12
2023-09-10T07:12:50.449Z,47.81
2023-09-10T07:15:17.135Z,47.47
2023-09-10T07:17:44.460Z,47.43
2023-09-10T07:20:12.327Z,47.40
2023-09-10T07:22:39.027Z,47.16
2023-09-10T07:25:06.585Z,47.41
2023-09-10T07:27:33.191Z,47.57
2023-09-10T07:29:59.733Z,47.78
2023-09-10T07:32:26.933Z,47.93
2023-09-10T07:34:53.580Z,47.62
2023-09-10T07:37:29.078Z,47.67
2023-09-10T07:39:55.669Z,47.58
2023-09-10T07:42:22.265Z,46.45
2023-09-10T07:44:48.802Z,47.32
2023-09-10T07:47:15.694Z,47.10
2023-09-10T07:50:00.752Z,47.10
2023-09-10T07:52:45.486Z,45.97
2023-09-10T07:55:12.093Z,45.61
2023-09-10T07:57:40.396Z,46.03
2023-09-10T08:00:09.601Z,45.86
2023-09-10T08:02:36.337Z,45.89
2023-09-10T08:05:04.119Z,45.54
2023-09-10T08:07:30.687Z,46.20
2023-09-10T08:09:57.242Z,45.38
2023-09-10T08:12:23.815Z,45.52
2023-09-10T08:14:50.418Z,44.87
2023-09-10T08:17:17.017Z,44.72
2023-09-10T08:19:43.642Z,44.72
2023-09-10T08:22:10.240Z,44.71
2023-09-10T08:24:36.802Z,44.62
2023-09-10T08:27:04.500Z,44.75
2023-09-10T08:29:31.290Z,44.39
2023-09-10T08:32:00.122Z,44.18
2023-09-10T08:34:27.137Z,43.85
2023-09-10T08:39:38.051Z,43.98
2023-09-10T08:42:11.140Z,42.34
2023-09-10T08:44:40.719Z,40.90
2023-09-10T08:47:09.509Z,41.94
2023-09-10T08:49:42.062Z,42.17
2023-09-10T08:59:04.570Z,41.78
2023-09-10T09:03:58.895Z,41.57
2023-09-10T09:06:30.084Z,39.84
2023-09-10T09:09:01.069Z,39.54
2023-09-10T09:11:30.684Z,40.77
2023-09-10T09:13:59.075Z,40.77
2023-09-10T09:16:26.187Z,40.27
2023-09-10T09:18:53.085Z,40.07
2023-09-10T09:21:22.645Z,40.65
2023-09-10T09:24:04.954Z,40.17
2023-09-10T09:26:34.686Z,39.92
2023-09-10T09:29:01.600Z,38.78
2023-09-10T09:31:28.224Z,38.48
2023-09-10T09:33:54.897Z,37.72
2023-09-10T09:36:28.581Z,37.42
2023-09-10T09:47:53.596Z,37.90
2023-09-10T09:50:26.449Z,37.13
2023-09-10T09:52:54.313Z,36.43
2023-09-10T09:55:21.122Z,36.16
2023-09-10T09:57:49.130Z,35.82
2023-09-10T10:00:16.407Z,35.61
2023-09-10T10:02:44.010Z,35.15
2023-09-10T10:05:27.064Z,34.64
2023-09-10T10:07:53.817Z,35.90
2023-09-10T10:10:20.906Z,35.88
2023-09-10T10:12:48.639Z,35.32
2023-09-10T10:15:17.345Z,34.93
2023-09-10T10:17:46.207Z,35.82
2023-09-10T10:20:14.808Z,36.16
2023-09-10T10:22:42.727Z,35.43
2023-09-10T10:25:09.955Z,35.21
2023-09-10T10:27:36.728Z,35.16
2023-09-10T10:30:04.983Z,35.41
2023-09-10T10:32:45.013Z,35.83
2023-09-10T10:35:12.813Z,34.89
2023-09-10T10:38:04.205Z,34.78
2023-09-10T10:40:43.250Z,33.98
2023-09-10T10:43:18.991Z,33.44
2023-09-10T10:45:53.082Z,34.18
2023-09-10T10:48:21.444Z,34.08
2023-09-10T10:50:50.087Z,34.59
2023-09-10T10:53:21.420Z,34.09
2023-09-10T10:55:57.739Z,34.18
2023-09-10T10:58:29.514Z,33.15
2023-09-10T11:00:58.760Z,33.51
2023-09-10T11:03:26.008Z,32.36
2023-09-10T11:05:55.886Z,32.33
2023-09-10T11:08:30.220Z,32.66
2023-09-10T11:11:35.772Z,31.68
2023-09-10T11:14:04.476Z,32.11
2023-09-10T11:16:35.124Z,32.50
2023-09-10T11:19:03.249Z,32.29
2023-09-10T11:21:44.659Z,30.93
2023-09-10T11:24:13.978Z,31.94
2023-09-10T11:26:40.582Z,30.71
2023-09-10T11:29:07.291Z,31.25
2023-09-10T11:31:40.192Z,31.57
2023-09-10T11:34:21.830Z,31.20
2023-09-10T11:36:50.373Z,31.73
2023-09-10T11:39:19.118Z,32.19
2023-09-10T11:41:55.282Z,30.58
2023-09-10T11:44:21.869Z,30.62
2023-09-10T11:46:50.241Z,28.73
2023-09-10T11:49:16.996Z,29.13
2023-09-10T11:51:45.715Z,29.36
2023-09-10T11:54:22.417Z,29.60
2023-09-10T11:56:52.622Z,29.18
2023-09-10T11:59:27.396Z,29.52
2023-09-10T12:01:55.608Z,27.64
2023-09-10T12:04:34.790Z,28.67
2023-09-10T12:07:07.648Z,28.49
2023-09-10T12:09:34.480Z,28.83
2023-09-10T12:12:25.224Z,29.04
2023-09-10T12:14:52.270Z,27.31
2023-09-10T12:17:19.340Z,28.77
2023-09-10T12:19:46.893Z,27.53
2023-09-10T12:22:19.151Z,26.95
2023-09-10T12:24:46.815Z,27.08
2023-09-10T12:27:14.714Z,27.35
2023-09-10T12:29:42.347Z,27.66
2023-09-10T12:32:09.743Z,27.77
2023-09-10T12:34:37.404Z,28.40
2023-09-10T12:37:04.347Z,27.56
2023-09-10T12:39:31.220Z,27.80
2023-09-10T12:42:05.166Z,28.01
2023-09-10T12:44:35.075Z,28.31
2023-09-10T12:47:04.728Z,27.05
2023-09-10T12:49:31.490Z,27.14
2023-09-10T12:51:58.160Z,27.15
2023-09-10T12:54:24.985Z,28.02
2023-09-10T12:57:16.119Z,27.33
2023-09-10T12:59:42.811Z,26.51
2023-09-10T13:02:11.896Z,26.00
2023-09-10T13:04:38.683Z,26.57
2023-09-10T13:07:07.793Z,26.04
2023-09-10T13:09:35.434Z,27.00
2023-09-10T13:12:02.072Z,26.14
2023-09-10T13:14:29.252Z,26.26
2023-09-10T13:16:58.364Z,26.11
2023-09-10T13:19:25.145Z,26.09
2023-09-10T13:21:51.733Z,26.68
2023-09-10T13:24:18.285Z,25.55
2023-09-10T13:26:44.848Z,26.61
2023-09-10T13:29:11.432Z,25.73
2023-09-10T13:31:38.225Z,25.59
2023-09-10T13:34:06.319Z,25.48
2023-09-10T13:36:32.931Z,25.17
2023-09-10T13:38:59.552Z,25.30
2023-09-10T13:41:26.666Z,24.65
2023-09-10T13:43:55.520Z,23.87
2023-09-10T13:46:22.145Z,24.63
2023-09-10T13:48:49.283Z,24.17
2023-09-10T13:51:15.919Z,25.43
2023-09-10T13:53:45.095Z,25.59
2023-09-10T13:56:12.605Z,25.14
2023-09-10T13:58:39.375Z,25.81
2023-09-10T14:01:08.716Z,25.57
2023-09-10T14:03:35.890Z,26.20
2023-09-10T14:06:03.709Z,26.01
2023-09-10T14:08:30.484Z,26.05
2023-09-10T14:10:57.098Z,26.05
2023-09-10T14:13:23.704Z,26.39
2023-09-10T14:15:50.294Z,25.62
2023-09-10T14:18:17.000Z,26.16
2023-09-10T14:20:45.519Z,25.71
2023-09-10T14:23:12.263Z,25.61
2023-09-10T14:25:38.899Z,24.39
2023-09-10T14:28:05.666Z,23.43
2023-09-10T14:30:32.266Z,24.32
2023-09-10T14:32:58.910Z,26.36
2023-09-10T14:35:25.596Z,25.96
2023-09-10T14:37:52.248Z,25.21
2023-09-10T14:40:19.074Z,25.10
2023-09-10T14:42:45.772Z,25.81
2023-09-10T14:45:15.190Z,23.99
2023-09-10T14:47:42.055Z,24.14
2023-09-10T14:50:14.006Z,24.63
2023-09-10T14:52:44.940Z,26.03
2023-09-10T14:55:12.580Z,26.32
2023-09-10T14:57:39.810Z,27.24
2023-09-10T15:00:07.301Z,26.91
2023-09-10T15:02:34.516Z,26.80
2023-09-10T15:05:02.186Z,28.54
2023-09-10T15:07:28.773Z,28.03
2023-09-10T15:09:55.464Z,28.00
2023-09-10T15:12:22.058Z,28.06
2023-09-10T15:14:49.640Z,27.99
2023-09-10T15:17:16.429Z,28.32
2023-09-10T15:19:43.070Z,28.99
2023-09-10T15:22:09.644Z,29.06
2023-09-10T15:24:37.349Z,28.89
2023-09-10T15:27:04.664Z,28.42
2023-09-10T15:29:31.435Z,28.39
2023-09-10T15:31:58.844Z,28.95
2023-09-10T15:34:25.454Z,29.39
2023-09-10T15:36:52.097Z,29.28
2023-09-10T15:39:21.193Z,29.24
2023-09-10T15:41:49.748Z,29.13
2023-09-10T15:44:17.166Z,29.66
2023-09-10T15:46:43.964Z,29.48
2023-09-10T15:49:10.651Z,29.48
2023-09-10T15:51:37.300Z,29.45
2023-09-10T15:54:04.305Z,29.40
2023-09-10T15:56:30.983Z,29.87
2023-09-10T15:58:57.682Z,30.24
2023-09-10T16:01:24.345Z,30.61
2023-09-10T16:03:51.094Z,30.31
2023-09-10T16:06:17.928Z,30.09
2023-09-10T16:08:44.558Z,29.97
2023-09-10T16:11:13.805Z,30.45
2023-09-10T16:13:41.871Z,30.36
2023-09-10T16:16:08.693Z,30.47
2023-09-10T16:18:35.573Z,30.69
2023-09-10T16:21:02.298Z,30.87
2023-09-10T16:23:34.257Z,31.06
2023-09-10T16:26:01.793Z,31.12
2023-09-10T16:28:28.498Z,31.26
2023-09-10T16:30:55.183Z,31.61
2023-09-10T16:33:21.882Z,32.22
2023-09-10T16:35:48.678Z,32.49
2023-09-10T16:38:15.551Z,32.84
2023-09-10T16:40:42.227Z,33.73
2023-09-10T16:43:08.851Z,34.18
2023-09-10T16:45:35.433Z,34.59
2023-09-10T16:48:02.144Z,34.74
2023-09-10T16:50:28.859Z,34.73
2023-09-10T16:52:55.554Z,34.92
2023-09-10T16:55:22.208Z,35.18
2023-09-10T16:57:48.942Z,35.41
2023-09-10T17:00:18.926Z,35.22
2023-09-10T17:02:45.665Z,35.34
2023-09-10T17:05:12.469Z,35.36
2023-09-10T17:07:42.714Z,35.36
2023-09-10T17:10:09.809Z,35.58
2023-09-10T17:12:36.489Z,35.89
2023-09-10T17:15:03.515Z,36.13
2023-09-10T17:17:36.120Z,36.25
2023-09-10T17:20:02.811Z,36.58
2023-09-10T17:22:30.034Z,36.82
2023-09-10T17:24:56.896Z,37.05
2023-09-10T17:27:23.539Z,37.41
2023-09-10T17:29:51.227Z,37.86
2023-09-10T17:32:18.868Z,38.14
2023-09-10T17:34:45.538Z,38.21
2023-09-10T17:37:12.180Z,38.42
2023-09-10T17:39:39.828Z,38.61
2023-09-10T17:42:06.455Z,38.86
2023-09-10T17:44:34.839Z,39.34
2023-09-10T17:47:06.206Z,39.39
2023-09-10T17:49:35.305Z,39.46
2023-09-10T17:52:02.025Z,39.57
2023-09-10T17:54:28.630Z,39.67
2023-09-10T17:56:55.276Z,39.76
2023-09-10T17:59:22.074Z,39.77
2023-09-10T18:01:49.040Z,40.05
2023-09-10T18:04:16.027Z,40.31
2023-09-10T18:06:42.685Z,40.56
2023-09-10T18:09:09.380Z,40.76
2023-09-10T18:11:38.575Z,40.53
2023-09-10T18:14:05.333Z,40.46
2023-09-10T18:16:31.992Z,40.61
2023-09-10T18:19:00.583Z,40.84
2023-09-10T18:21:27.334Z,41.10
2023-09-10T18:23:54.034Z,41.45
2023-09-10T18:26:22.858Z,41.53
2023-09-10T18:28:49.426Z,41.53
2023-09-10T18:31:16.008Z,41.33
2023-09-10T18:33:42.962Z,41.50
2023-09-10T18:36:09.774Z,41.49
2023-09-10T18:38:51.036Z,41.58
2023-09-10T18:41:17.681Z,41.84
2023-09-10T18:43:44.317Z,41.94
2023-09-10T18:46:11.003Z,42.04
2023-09-10T18:48:37.901Z,42.20
2023-09-10T18:51:04.600Z,42.24
2023-09-10T18:53:32.458Z,42.26
2023-09-10T18:55:59.323Z,42.42
2023-09-10T18:58:25.957Z,42.70
2023-09-10T19:00:53.377Z,42.89
2023-09-10T19:03:20.540Z,43.06
2023-09-10T19:05:50.821Z,43.06
2023-09-10T19:08:17.406Z,42.84
2023-09-10T19:10:44.028Z,42.82
2023-09-10T19:13:10.613Z,42.79
2023-09-10T19:15:40.597Z,42.92
2023-09-10T19:18:07.350Z,42.83
2023-09-10T19:20:34.039Z,42.84
2023-09-10T19:23:01.964Z,43.00
2023-09-10T19:25:28.608Z,42.99
2023-09-10T19:27:55.250Z,42.99
2023-09-10T19:30:21.850Z,43.13
2023-09-10T19:32:48.636Z,43.18
2023-09-10T19:35:17.532Z,43.23
2023-09-10T19:37:44.300Z,43.40
2023-09-10T19:40:11.141Z,43.45
2023-09-10T19:42:37.992Z,43.55
2023-09-10T19:45:04.907Z,43.53
2023-09-10T19:47:31.616Z,43.41
2023-09-10T19:49:58.218Z,43.23
2023-09-10T19:52:24.837Z,43.33
2023-09-10T19:55:03.423Z,43.60
2023-09-10T19:57:36.037Z,43.73
2023-09-10T20:00:03.307Z,43.88
2023-09-10T20:02:30.047Z,43.89
2023-09-10T20:04:56.807Z,43.90
2023-09-10T20:07:23.519Z,43.96
2023-09-10T20:09:50.118Z,44.17
2023-09-10T20:12:38.295Z,44.43
2023-09-10T20:15:06.712Z,44.54
2023-09-10T20:17:34.059Z,44.65
2023-09-10T20:20:00.836Z,44.68
2023-09-10T20:22:27.441Z,44.75
2023-09-10T20:24:54.539Z,44.92
2023-09-10T20:27:21.206Z,44.94
2023-09-10T20:29:47.898Z,45.07
2023-09-10T20:32:14.571Z,45.12
2023-09-10T20:34:41.231Z,45.10
2023-09-10T20:37:07.837Z,45.36
2023-09-10T20:39:34.387Z,45.19
2023-09-10T20:42:01.706Z,45.43
2023-09-10T20:44:28.600Z,45.43
2023-09-10T20:46:55.253Z,45.61
2023-09-10T20:49:21.945Z,45.59
2023-09-10T20:51:51.060Z,45.76
2023-09-10T20:54:17.642Z,45.87
2023-09-10T20:56:44.278Z,46.03
2023-09-10T20:59:10.882Z,46.10
2023-09-10T21:01:37.542Z,46.21
2023-09-10T21:04:04.397Z,46.40
2023-09-10T21:06:31.298Z,46.42
2023-09-10T21:08:58.079Z,46.38
2023-09-10T21:11:24.755Z,46.42
2023-09-10T21:13:51.783Z,46.34
2023-09-10T21:16:18.538Z,46.36
2023-09-10T21:18:46.546Z,46.27
2023-09-10T21:21:14.050Z,46.25
2023-09-10T21:23:40.808Z,46.34
2023-09-10T21:26:08.634Z,46.38
2023-09-10T21:28:35.251Z,46.48
2023-09-10T21:31:01.847Z,46.42
2023-09-10T21:33:28.511Z,46.56
2023-09-10T21:35:55.331Z,46.37
2023-09-10T21:38:22.082Z,46.36
2023-09-10T21:40:48.667Z,46.39
2023-09-10T21:43:15.373Z,46.41
2023-09-10T21:45:43.172Z,46.42
2023-09-10T21:48:10.974Z,46.68
2023-09-10T21:50:38.080Z,46.78
2023-09-10T21:53:05.522Z,46.78
2023-09-10T21:55:32.164Z,46.90
2023-09-10T21:57:58.936Z,46.99
2023-09-10T22:00:25.607Z,46.94
2023-09-10T22:02:52.292Z,46.89
2023-09-10T22:05:19.218Z,46.90
2023-09-10T22:07:45.873Z,46.97
2023-09-10T22:10:12.485Z,47.17
2023-09-10T22:12:39.064Z,47.20
2023-09-10T22:15:09.872Z,47.24
2023-09-10T22:17:39.468Z,47.31
2023-09-10T22:20:12.370Z,47.41
2023-09-10T22:22:40.180Z,47.48
2023-09-10T22:25:06.925Z,47.39
2023-09-10T22:27:33.667Z,47.24
2023-09-10T22:30:00.405Z,47.13
2023-09-10T22:32:27.079Z,47.01
2023-09-10T22:34:53.805Z,47.00
2023-09-10T22:37:20.365Z,47.05
2023-09-10T22:39:48.119Z,47.01
2023-09-10T22:42:15.108Z,46.99
2023-09-10T22:44:41.745Z,47.09
2023-09-10T22:47:08.385Z,47.12
2023-09-10T22:49:36.057Z,47.06
2023-09-10T22:52:02.656Z,46.96
2023-09-10T22:54:29.542Z,46.87
2023-09-10T22:56:56.124Z,46.88
2023-09-10T22:59:22.718Z,46.88
2023-09-10T23:01:50.119Z,46.85
2023-09-10T23:04:18.184Z,46.83
2023-09-10T23:06:46.626Z,46.89
2023-09-10T23:09:13.440Z,47.21
2023-09-10T23:11:40.314Z,47.29
2023-09-10T23:14:07.219Z,47.21
2023-09-10T23:16:35.209Z,47.03
2023-09-10T23:19:03.712Z,46.92
2023-09-10T23:21:30.529Z,46.85
2023-09-10T23:23:57.231Z,46.85
2023-09-10T23:26:24.034Z,46.94
2023-09-10T23:28:50.725Z,46.90
2023-09-10T23:31:17.380Z,46.91
2023-09-10T23:33:44.439Z,46.86
2023-09-10T23:36:11.110Z,46.95
2023-09-10T23:38:37.836Z,46.92
2023-09-10T23:41:07.594Z,47.18
2023-09-10T23:43:36.506Z,47.26
2023-09-10T23:46:03.899Z,47.17
2023-09-10T23:48:30.523Z,47.26
2023-09-10T23:50:57.678Z,47.49
2023-09-10T23:53:24.351Z,47.72
2023-09-10T23:55:50.933Z,47.63
2023-09-10T23:58:17.534Z,47.42
